CheckWX is a tool to help pilots better visualize weather data.  It is not intended as a substitute for an official pre-flight weather briefing.

14:39:31 UTC

KUKT METAR
Quakertown Airport
Quakertown, Pennsylvania, USA
Current

20 mins ago

KUKT 071420Z AUTO 00000KT 10SM OVC044 01/M07 A3037 RMK A01
Observed
Dec-7 @ 14:20 UTC
Visibility
10 SM
Flight Rules
VFR
Cloud Levels
  • Overcast at 4,400' AGL
Temperature
C / 34°F
Dewpoint
-7°C / 19°F
Humidity
56%
Altimeter
30.37" Hg
Pressure
1028.42 hPa
Previous

25 mins ago

KUKT 071415Z AUTO 00000KT 10SM BKN044 01/M07 A3037 RMK A01
Observed
Dec-7 @ 14:15 UTC
Visibility
10 SM
Flight Rules
VFR
Cloud Levels
  • Broken at 4,400' AGL
Temperature
C / 34°F
Dewpoint
-7°C / 19°F
Humidity
56%
Altimeter
30.37" Hg
Pressure
1028.42 hPa
Previous

40 mins ago

KUKT 071400Z AUTO 00000KT 10SM OVC044 01/M07 A3036 RMK A01
Observed
Dec-7 @ 14:00 UTC
Visibility
10 SM
Flight Rules
VFR
Cloud Levels
  • Overcast at 4,400' AGL
Temperature
C / 34°F
Dewpoint
-7°C / 19°F
Humidity
56%
Altimeter
30.36" Hg
Pressure
1028.12 hPa